Time;durP1;ratioP1;P1;durP2;ratioP2;P2;SDS_P1;SDS_P2;PMS_P1;PMS_P2;Temp;Humidity;BMP_temperature;BMP_pressure;BME280_temperature;BME280_humidity;BME280_pressure;Samples;Min_cycle;Max_cycle;Signal;HPM_P1;HPM_P2
2020/12/03 00:01:55;;;;;;;18.92;12.05;;;3.10;75.40;;;;;;5029675;28;20132;-63
2020/12/03 00:04:21;;;;;;;20.42;13.07;;;3.20;75.50;;;;;;5034016;28;20496;-63
2020/12/03 00:06:54;;;;;;;22.85;12.70;;;3.20;75.50;;;;;;5035447;28;20037;-63
2020/12/03 00:09:21;;;;;;;22.05;13.45;;;3.10;75.00;;;;;;5029574;28;20334;-63
2020/12/03 00:11:58;;;;;;;18.95;11.18;;;3.10;75.40;;;;;;5027600;28;20393;-63
2020/12/03 00:14:24;;;;;;;19.83;11.75;;;3.10;75.50;;;;;;5031813;28;20029;-63
2020/12/03 00:16:52;;;;;;;19.77;12.00;;;3.10;75.70;;;;;;5035642;28;20029;-63
2020/12/03 00:19:22;;;;;;;27.83;13.95;;;3.10;75.60;;;;;;5028737;28;20018;-63
2020/12/03 00:22:00;;;;;;;19.52;11.95;;;3.10;75.50;;;;;;5035741;28;20025;-63
2020/12/03 00:24:30;;;;;;;19.25;11.50;;;3.20;75.40;;;;;;5032902;28;20033;-63
2020/12/03 00:26:56;;;;;;;20.92;12.40;;;3.10;75.80;;;;;;5047542;28;20021;-63
2020/12/03 00:29:23;;;;;;;18.35;11.80;;;3.10;75.50;;;;;;5039267;28;20439;-63
2020/12/03 00:31:50;;;;;;;19.48;11.73;;;3.20;76.20;;;;;;5025765;28;20397;-63
2020/12/03 00:34:17;;;;;;;21.15;12.85;;;3.20;75.70;;;;;;5031745;28;20036;-63
2020/12/03 00:36:43;;;;;;;17.67;12.23;;;3.20;75.90;;;;;;5035320;28;20080;-63
2020/12/03 00:39:14;;;;;;;23.65;13.70;;;3.20;75.90;;;;;;5021626;28;20036;-63
2020/12/03 00:41:40;;;;;;;21.02;12.70;;;3.20;75.70;;;;;;5039009;28;20021;-63
2020/12/03 00:44:06;;;;;;;23.13;13.80;;;3.10;75.70;;;;;;5031783;28;20033;-63
2020/12/03 00:46:33;;;;;;;20.38;13.32;;;3.10;75.80;;;;;;5035796;28;20465;-63
2020/12/03 00:49:00;;;;;;;20.98;12.88;;;3.00;76.00;;;;;;5035571;28;20030;-63
2020/12/03 00:51:26;;;;;;;26.23;15.93;;;2.90;76.40;;;;;;5030132;28;20053;-63
2020/12/03 00:53:52;;;;;;;17.83;11.27;;;2.90;76.80;;;;;;5030432;28;20065;-63
2020/12/03 00:56:18;;;;;;;18.60;11.38;;;2.90;76.90;;;;;;5030948;28;20424;-63
2020/12/03 00:58:48;;;;;;;19.60;12.50;;;2.90;76.60;;;;;;5033717;28;20033;-63
2020/12/03 01:01:19;;;;;;;20.45;12.13;;;2.90;76.80;;;;;;5034281;28;20048;-63
2020/12/03 01:03:45;;;;;;;19.90;12.43;;;2.90;77.10;;;;;;5043841;28;20061;-63
2020/12/03 01:06:11;;;;;;;21.33;12.48;;;3.00;77.20;;;;;;5037669;28;20017;-63
2020/12/03 01:08:37;;;;;;;17.42;10.45;;;3.10;77.10;;;;;;5031869;28;20048;-63
2020/12/03 01:11:04;;;;;;;15.30;9.88;;;3.10;76.90;;;;;;5032947;28;20044;-63
2020/12/03 01:13:30;;;;;;;21.55;12.00;;;3.10;76.30;;;;;;5031136;28;20091;-63
2020/12/03 01:15:56;;;;;;;20.38;11.90;;;3.10;76.10;;;;;;5041355;28;20025;-63
2020/12/03 01:18:23;;;;;;;19.73;12.40;;;3.10;76.30;;;;;;5028506;28;20029;-63
2020/12/03 01:20:48;;;;;;;16.20;11.02;;;3.10;76.60;;;;;;5025197;28;20507;-63
2020/12/03 01:23:14;;;;;;;16.33;10.60;;;3.10;76.50;;;;;;5031718;28;20021;-63
2020/12/03 01:25:40;;;;;;;14.73;9.77;;;3.10;76.60;;;;;;5028510;28;20033;-63
2020/12/03 01:28:05;;;;;;;18.10;11.75;;;3.10;76.70;;;;;;5029666;28;20046;-63
2020/12/03 01:30:31;;;;;;;21.00;12.23;;;3.00;76.50;;;;;;5032630;28;20052;-63
2020/12/03 01:32:57;;;;;;;15.63;10.48;;;3.00;76.50;;;;;;5033334;28;20025;-63
2020/12/03 01:35:22;;;;;;;18.08;10.57;;;2.90;76.60;;;;;;5029949;28;20076;-63
2020/12/03 01:37:51;;;;;;;15.25;10.00;;;2.90;76.70;;;;;;5030682;28;20385;-63
2020/12/03 01:40:20;;;;;;;15.30;10.25;;;2.90;76.80;;;;;;5028273;28;20122;-63
2020/12/03 01:42:46;;;;;;;21.13;12.13;;;2.90;76.60;;;;;;5036836;28;20036;-63
2020/12/03 01:45:46;;;;;;;21.30;12.95;;;2.80;76.60;;;;;;5037762;28;20029;-63
2020/12/03 01:48:35;;;;;;;26.13;14.48;;;2.80;77.00;;;;;;5023674;28;20033;-63
2020/12/03 01:51:04;;;;;;;22.58;13.32;;;2.70;76.90;;;;;;5036452;28;20052;-63
2020/12/03 01:53:29;;;;;;;22.40;12.63;;;2.70;77.20;;;;;;5033192;28;20376;-63
2020/12/03 01:55:56;;;;;;;20.20;12.93;;;2.70;77.40;;;;;;5032732;28;20026;-63
2020/12/03 01:58:43;;;;;;;22.45;13.07;;;2.60;77.50;;;;;;5030840;28;20022;-63
2020/12/03 02:01:10;;;;;;;24.98;13.40;;;2.60;77.80;;;;;;5041136;28;20096;-63
2020/12/03 02:03:48;;;;;;;26.95;15.27;;;2.60;77.60;;;;;;5041656;28;20025;-63
2020/12/03 02:06:20;;;;;;;23.63;12.93;;;2.50;77.90;;;;;;5034112;28;20096;-63
2020/12/03 02:08:45;;;;;;;;;;;2.50;77.90;;;;;;5033377;28;20483;-63
2020/12/03 02:11:11;;;;;;;18.20;11.65;;;2.40;78.70;;;;;;5036553;28;19909;-63
2020/12/03 02:13:37;;;;;;;23.17;12.77;;;2.30;78.10;;;;;;5027930;28;20084;-63
2020/12/03 02:16:04;;;;;;;21.13;13.05;;;2.30;78.50;;;;;;5032004;28;20362;-63
2020/12/03 02:18:29;;;;;;;29.90;15.73;;;2.30;78.90;;;;;;5030572;28;20022;-63
2020/12/03 02:20:55;;;;;;;25.45;13.68;;;2.30;78.90;;;;;;5027145;28;20381;-63
2020/12/03 02:23:21;;;;;;;25.48;14.80;;;2.20;79.00;;;;;;5027799;28;20025;-63
2020/12/03 02:25:46;;;;;;;23.77;14.68;;;2.20;79.30;;;;;;5030318;28;20025;-63
2020/12/03 02:28:12;;;;;;;21.02;13.15;;;2.20;79.10;;;;;;5030491;28;20102;-63
2020/12/03 02:30:38;;;;;;;21.70;13.50;;;2.20;79.10;;;;;;5029372;28;20025;-63
2020/12/03 02:33:04;;;;;;;20.98;11.90;;;2.30;79.30;;;;;;5025073;28;20024;-63
2020/12/03 02:35:29;;;;;;;23.35;13.75;;;2.30;79.10;;;;;;5019816;28;20030;-63
2020/12/03 02:37:56;;;;;;;24.17;15.27;;;2.30;78.90;;;;;;5019135;28;20338;-63
2020/12/03 02:40:21;;;;;;;26.52;15.63;;;2.40;79.10;;;;;;5023796;28;20067;-63
2020/12/03 02:42:47;;;;;;;26.98;15.02;;;2.50;79.30;;;;;;5026949;28;20461;-63
2020/12/03 02:45:13;;;;;;;27.95;15.43;;;2.50;79.20;;;;;;5033288;28;20029;-63
2020/12/03 02:47:38;;;;;;;23.73;13.68;;;2.70;79.40;;;;;;5018472;28;20033;-63
2020/12/03 02:50:05;;;;;;;24.27;13.95;;;2.80;79.20;;;;;;5033723;28;20030;-63
2020/12/03 02:52:31;;;;;;;26.00;14.98;;;2.90;79.00;;;;;;5029412;28;20022;-63
2020/12/03 02:54:57;;;;;;;28.15;15.65;;;3.00;78.70;;;;;;5026954;28;20492;-63
2020/12/03 02:57:23;;;;;;;29.70;17.17;;;3.00;78.40;;;;;;5032365;28;20030;-63
2020/12/03 02:59:49;;;;;;;31.42;19.80;;;3.10;78.00;;;;;;5029339;28;20064;-63
2020/12/03 03:02:15;;;;;;;25.85;15.20;;;3.10;77.80;;;;;;5028002;28;20045;-63
2020/12/03 03:04:41;;;;;;;26.02;15.68;;;3.20;77.50;;;;;;5028707;28;20072;-63
2020/12/03 03:07:07;;;;;;;28.48;16.83;;;3.20;76.90;;;;;;5026058;28;20037;-63
2020/12/03 03:09:33;;;;;;;26.83;15.73;;;3.10;76.90;;;;;;5028866;28;20021;-63
2020/12/03 03:11:58;;;;;;;26.45;16.45;;;3.10;77.10;;;;;;5028909;28;20052;-63
2020/12/03 03:14:24;;;;;;;24.83;15.35;;;3.10;77.40;;;;;;5028321;28;20029;-63
2020/12/03 03:16:50;;;;;;;29.77;17.50;;;3.10;77.30;;;;;;5025296;28;20033;-63
2020/12/03 03:19:17;;;;;;;32.53;19.83;;;3.10;77.00;;;;;;5028713;28;20021;-63
2020/12/03 03:21:43;;;;;;;34.25;20.15;;;3.10;77.30;;;;;;5031844;28;20032;-63
2020/12/03 03:24:09;;;;;;;34.42;19.35;;;3.10;77.50;;;;;;5022980;28;20025;-63
2020/12/03 03:26:36;;;;;;;32.92;20.35;;;3.20;77.50;;;;;;5030810;28;20049;-63
2020/12/03 03:29:03;;;;;;;35.42;21.10;;;3.20;77.60;;;;;;5029925;28;20064;-63
2020/12/03 03:31:28;;;;;;;34.53;21.20;;;3.30;77.60;;;;;;5028112;28;20037;-63
2020/12/03 03:33:54;;;;;;;36.55;21.42;;;3.40;77.80;;;;;;5022291;28;20022;-63
2020/12/03 03:36:20;;;;;;;35.85;21.58;;;3.50;77.70;;;;;;5020838;28;20021;-63
2020/12/03 03:38:46;;;;;;;30.88;18.98;;;3.50;77.30;;;;;;5024710;28;20025;-63
2020/12/03 03:41:12;;;;;;;28.25;16.23;;;3.50;76.90;;;;;;5036811;28;20026;-63
2020/12/03 03:43:38;;;;;;;33.50;18.95;;;3.50;76.70;;;;;;5030002;28;20481;-63
2020/12/03 03:46:04;;;;;;;31.77;16.92;;;3.50;76.80;;;;;;5032826;28;20397;-63
2020/12/03 03:48:29;;;;;;;38.47;21.35;;;3.50;76.80;;;;;;5029034;28;20026;-63
2020/12/03 03:50:55;;;;;;;34.97;20.77;;;3.50;76.70;;;;;;5029700;28;20922;-62
2020/12/03 03:53:21;;;;;;;39.38;21.55;;;3.50;77.00;;;;;;5038473;28;20021;-63
2020/12/03 03:55:47;;;;;;;33.22;18.83;;;3.60;77.00;;;;;;5034669;28;20373;-63
2020/12/03 03:58:12;;;;;;;38.53;22.40;;;3.60;77.00;;;;;;5033313;28;20029;-63
2020/12/03 04:00:43;;;;;;;39.15;22.67;;;3.60;76.60;;;;;;5031760;28;20069;-63
2020/12/03 04:03:13;;;;;;;36.85;19.60;;;3.60;76.40;;;;;;5028892;28;20468;-63
2020/12/03 04:05:47;;;;;;;35.15;21.23;;;3.60;76.20;;;;;;5028338;28;20029;-63
2020/12/03 04:08:14;;;;;;;36.22;23.17;;;3.50;76.10;;;;;;5031193;28;20029;-63
2020/12/03 04:10:41;;;;;;;44.45;24.55;;;3.50;76.20;;;;;;5033408;28;20112;-63
2020/12/03 04:13:07;;;;;;;32.28;20.15;;;3.50;76.40;;;;;;5029667;28;20025;-63
2020/12/03 04:15:33;;;;;;;32.13;19.00;;;3.50;76.30;;;;;;5029542;28;20037;-63
2020/12/03 04:17:59;;;;;;;33.60;20.27;;;3.50;76.20;;;;;;5026530;28;20088;-63
2020/12/03 04:20:25;;;;;;;34.25;18.38;;;3.50;76.10;;;;;;5035069;28;20097;-63
2020/12/03 04:22:50;;;;;;;33.70;19.73;;;3.50;76.20;;;;;;5032926;28;20064;-63
2020/12/03 04:25:16;;;;;;;31.08;18.55;;;3.50;76.40;;;;;;5044680;28;20556;-63
2020/12/03 04:27:42;;;;;;;31.67;18.55;;;3.50;76.20;;;;;;5036190;28;20052;-63
2020/12/03 04:30:09;;;;;;;41.13;20.10;;;3.50;76.10;;;;;;5032372;28;20030;-63
2020/12/03 04:32:35;;;;;;;31.88;18.13;;;3.50;75.90;;;;;;5031038;28;20029;-63
2020/12/03 04:35:01;;;;;;;29.52;18.40;;;3.50;75.90;;;;;;5025609;28;20068;-63
2020/12/03 04:37:27;;;;;;;34.83;18.92;;;3.50;75.90;;;;;;5030744;28;20029;-63
2020/12/03 04:39:52;;;;;;;32.28;18.70;;;3.50;76.00;;;;;;5026673;28;20108;-63
2020/12/03 04:42:28;;;;;;;33.03;19.42;;;3.60;75.90;;;;;;5028302;28;20417;-63
2020/12/03 04:44:57;;;;;;;34.78;19.27;;;3.60;75.60;;;;;;5030312;28;20465;-63
2020/12/03 04:47:35;;;;;;;32.08;19.30;;;3.60;75.70;;;;;;5028593;28;20450;-63
2020/12/03 04:50:30;;;;;;;28.40;15.68;;;3.60;75.50;;;;;;5025699;28;20377;-63
2020/12/03 04:53:14;;;;;;;33.90;18.10;;;3.60;75.20;;;;;;5030852;28;20037;-63
2020/12/03 04:55:50;;;;;;;39.20;21.60;;;3.60;75.40;;;;;;5028073;28;20661;-63
2020/12/03 04:58:34;;;;;;;36.17;21.13;;;3.60;75.60;;;;;;5031499;28;20021;-63
2020/12/03 05:01:10;;;;;;;31.83;18.60;;;3.60;75.40;;;;;;5026814;28;20373;-63
2020/12/03 05:03:58;;;;;;;36.00;19.10;;;3.60;75.20;;;;;;5031863;28;20403;-63
2020/12/03 05:06:50;;;;;;;23.75;13.77;;;3.60;75.20;;;;;;5032789;28;20031;-63
2020/12/03 05:09:18;;;;;;;;;;;3.60;74.90;;;;;;5017986;28;20069;-63
2020/12/03 05:11:54;;;;;;;18.83;12.32;;;3.50;74.80;;;;;;5031787;28;19905;-63
2020/12/03 05:14:28;;;;;;;27.10;13.95;;;3.40;74.70;;;;;;5034406;28;20049;-63
2020/12/03 05:17:15;;;;;;;27.50;15.18;;;3.40;74.60;;;;;;5032769;28;20033;-63
2020/12/03 05:20:03;;;;;;;29.52;15.57;;;3.30;75.40;;;;;;5026643;28;20057;-63
2020/12/03 05:22:29;;;;;;;26.45;14.90;;;3.30;75.40;;;;;;5028681;28;20029;-63
2020/12/03 05:24:55;;;;;;;28.92;16.08;;;3.30;75.50;;;;;;5033362;28;20339;-63
2020/12/03 05:27:30;;;;;;;37.63;17.60;;;3.30;75.60;;;;;;5032234;28;20046;-63
2020/12/03 05:29:58;;;;;;;33.88;18.42;;;3.30;75.50;;;;;;5034305;28;20022;-63
2020/12/03 05:32:24;;;;;;;25.42;15.82;;;3.40;75.80;;;;;;5033146;28;20037;-63
2020/12/03 05:34:50;;;;;;;33.45;17.70;;;3.40;75.70;;;;;;5034183;28;20037;-63
2020/12/03 05:37:17;;;;;;;33.95;18.40;;;3.50;75.80;;;;;;5032188;28;20445;-63
2020/12/03 05:39:50;;;;;;;33.55;19.48;;;3.50;75.90;;;;;;5020601;28;20450;-63
2020/12/03 05:42:27;;;;;;;28.30;15.55;;;3.60;75.90;;;;;;5033815;28;20116;-63
2020/12/03 05:45:01;;;;;;;32.55;18.50;;;3.70;75.40;;;;;;5033686;28;20133;-63
2020/12/03 05:47:41;;;;;;;30.92;16.10;;;3.70;74.90;;;;;;5034635;28;20040;-63
2020/12/03 05:50:37;;;;;;;32.38;18.20;;;3.70;74.90;;;;;;5031149;28;20032;-63
2020/12/03 05:53:15;;;;;;;28.40;17.50;;;3.70;74.80;;;;;;5034267;28;20033;-64
2020/12/03 05:55:41;;;;;;;26.80;17.02;;;3.70;74.50;;;;;;5021281;28;20056;-63
2020/12/03 05:58:27;;;;;;;40.28;23.02;;;3.60;74.30;;;;;;5032581;28;20095;-63
2020/12/03 06:01:16;;;;;;;34.65;19.50;;;3.60;74.30;;;;;;5033346;28;20061;-63
2020/12/03 06:04:03;;;;;;;39.53;21.33;;;3.60;74.70;;;;;;5032448;28;20363;-63
2020/12/03 06:06:37;;;;;;;37.75;21.15;;;3.60;74.80;;;;;;5027985;28;20080;-63
2020/12/03 06:09:30;;;;;;;43.72;26.35;;;3.50;74.70;;;;;;5014564;28;20037;-63
2020/12/03 06:12:20;;;;;;;35.58;19.00;;;3.50;74.70;;;;;;5029358;28;20017;-63
2020/12/03 06:14:57;;;;;;;35.45;19.58;;;3.50;74.70;;;;;;5029711;28;20107;-63
2020/12/03 06:17:54;;;;;;;49.08;23.23;;;3.40;74.50;;;;;;5027194;28;20126;-63
2020/12/03 06:20:47;;;;;;;44.47;21.67;;;3.40;74.80;;;;;;5027677;28;20072;-63
2020/12/03 06:24:26;;;;;;;50.95;24.10;;;3.40;75.10;;;;;;5028503;28;20017;-63
2020/12/03 06:27:13;;;;;;;41.47;20.58;;;3.50;75.10;;;;;;4930609;29;20114;-63
2020/12/03 06:29:38;;;;;;;38.03;19.23;;;3.50;75.20;;;;;;4962015;28;20143;-63
2020/12/03 06:32:25;;;;;;;38.97;20.60;;;3.50;75.10;;;;;;5016002;28;20064;-63
2020/12/03 06:35:19;;;;;;;45.92;23.60;;;3.50;75.10;;;;;;5018303;28;20108;-63
2020/12/03 06:37:55;;;;;;;39.80;21.98;;;3.60;75.20;;;;;;5024354;28;20064;-63
2020/12/03 06:40:26;;;;;;;45.38;22.80;;;3.60;74.70;;;;;;5023301;28;20187;-63
2020/12/03 06:43:24;;;;;;;52.53;24.17;;;3.50;74.50;;;;;;5019496;28;20033;-62
2020/12/03 06:46:41;;;;;;;44.10;22.38;;;3.50;74.40;;;;;;5020334;28;20380;-63
2020/12/03 06:49:34;;;;;;;48.55;23.60;;;3.40;74.50;;;;;;5028391;28;20041;-63
2020/12/03 06:52:30;;;;;;;43.38;22.92;;;3.40;74.80;;;;;;5027432;28;20029;-63
2020/12/03 06:55:27;;;;;;;48.17;24.55;;;3.40;75.10;;;;;;5024755;28;20052;-63
2020/12/03 06:58:11;;;;;;;45.97;24.60;;;3.40;75.30;;;;;;5021451;28;20497;-63
2020/12/03 07:01:10;;;;;;;47.28;25.70;;;3.40;75.40;;;;;;5022015;28;20034;-63
2020/12/03 07:04:05;;;;;;;47.75;23.25;;;3.50;75.20;;;;;;5017881;28;20033;-62
2020/12/03 07:07:07;;;;;;;44.15;24.25;;;3.50;75.30;;;;;;5019309;28;20053;-58
2020/12/03 07:10:10;;;;;;;49.20;28.35;;;3.50;74.90;;;;;;5017446;28;20060;-58
2020/12/03 07:13:04;;;;;;;43.10;23.48;;;3.50;75.20;;;;;;5023039;28;20029;-60
2020/12/03 07:15:35;;;;;;;41.30;22.02;;;3.60;75.50;;;;;;5020077;28;20053;-59
2020/12/03 07:18:43;;;;;;;45.45;23.60;;;3.50;75.20;;;;;;5019983;28;20029;-59
2020/12/03 07:21:40;;;;;;;46.10;22.85;;;3.50;74.60;;;;;;5018854;28;20065;-58
2020/12/03 07:24:17;;;;;;;38.60;20.38;;;3.40;74.70;;;;;;5024193;28;20044;-57
2020/12/03 07:27:06;;;;;;;34.15;18.00;;;3.40;74.90;;;;;;5019105;28;20033;-59
2020/12/03 07:29:40;;;;;;;30.92;17.80;;;3.40;75.00;;;;;;5024426;28;20058;-59
2020/12/03 07:32:39;;;;;;;32.50;18.42;;;3.40;74.80;;;;;;5021132;28;20025;-59
2020/12/03 07:35:23;;;;;;;37.17;22.77;;;3.40;74.70;;;;;;5018087;28;20652;-60
2020/12/03 07:38:04;;;;;;;37.13;20.27;;;3.30;74.40;;;;;;5012263;28;20029;-60
2020/12/03 07:40:31;;;;;;;39.72;23.73;;;3.20;74.60;;;;;;5011042;28;20037;-59
2020/12/03 07:43:14;;;;;;;39.95;21.60;;;3.20;74.60;;;;;;5026371;28;20030;-59
2020/12/03 07:45:47;;;;;;;36.22;18.40;;;3.20;75.20;;;;;;5017364;28;20077;-60
2020/12/03 07:48:20;;;;;;;43.47;21.42;;;3.20;75.60;;;;;;5020779;28;20026;-54
2020/12/03 07:50:51;;;;;;;591.40;90.13;;;3.30;76.20;;;;;;5017380;28;20030;-56
2020/12/03 07:53:23;;;;;;;45.78;22.13;;;3.40;75.90;;;;;;5010927;28;20036;-60
2020/12/03 07:55:49;;;;;;;40.22;22.17;;;3.60;75.90;;;;;;5014427;28;20041;-60
2020/12/03 07:58:37;;;;;;;51.45;22.83;;;3.70;75.60;;;;;;5008189;28;20033;-60
2020/12/03 08:01:05;;;;;;;41.25;22.98;;;3.70;75.20;;;;;;5009414;28;20112;-60
2020/12/03 08:03:41;;;;;;;38.35;23.55;;;3.70;74.80;;;;;;5015821;28;20037;-59
2020/12/03 08:06:16;;;;;;;48.10;25.75;;;3.70;74.20;;;;;;5014604;28;20065;-60
2020/12/03 08:09:04;;;;;;;38.08;21.60;;;3.70;74.30;;;;;;5017295;28;20087;-59
2020/12/03 08:11:56;;;;;;;44.10;20.27;;;3.70;74.50;;;;;;5009751;28;20033;-59
2020/12/03 08:14:40;;;;;;;42.65;23.05;;;3.80;74.60;;;;;;5009769;28;21266;-60
2020/12/03 08:17:25;;;;;;;42.03;19.58;;;3.80;74.60;;;;;;5007273;28;20041;-60
2020/12/03 08:20:03;;;;;;;39.75;19.05;;;3.90;74.60;;;;;;5013435;28;20022;-61
2020/12/03 08:22:51;;;;;;;38.30;18.73;;;3.90;74.50;;;;;;5010188;28;20103;-60
2020/12/03 08:25:28;;;;;;;43.40;21.73;;;3.90;74.10;;;;;;5013106;28;20076;-60
2020/12/03 08:28:03;;;;;;;40.97;22.08;;;4.00;74.40;;;;;;5014469;28;20049;-60
2020/12/03 08:30:37;;;;;;;54.60;23.20;;;4.00;74.50;;;;;;5013494;28;20102;-61
2020/12/03 08:33:11;;;;;;;44.08;22.70;;;4.00;74.10;;;;;;5012808;28;20041;-60
2020/12/03 08:35:39;;;;;;;40.33;23.38;;;4.10;74.40;;;;;;5015501;28;20114;-60
2020/12/03 08:38:06;;;;;;;46.60;25.33;;;4.00;74.10;;;;;;5016819;28;20119;-60
2020/12/03 08:40:34;;;;;;;50.97;25.20;;;4.00;74.10;;;;;;5017467;28;20029;-60
2020/12/03 08:43:03;;;;;;;44.40;23.98;;;4.00;74.00;;;;;;5014354;28;20056;-60
2020/12/03 08:45:41;;;;;;;39.85;20.33;;;4.00;74.10;;;;;;5017975;28;20040;-60
2020/12/03 08:48:09;;;;;;;51.47;27.73;;;4.10;74.00;;;;;;5013607;28;20036;-60
2020/12/03 08:50:35;;;;;;;52.70;23.55;;;4.10;74.00;;;;;;5017643;28;20040;-61
2020/12/03 08:53:11;;;;;;;44.85;23.73;;;4.10;74.30;;;;;;5013701;28;20069;-61
2020/12/03 08:55:42;;;;;;;61.28;27.33;;;4.10;74.10;;;;;;5014291;28;20040;-61
2020/12/03 08:58:09;;;;;;;42.80;22.55;;;4.10;74.00;;;;;;5014537;28;20037;-61
2020/12/03 09:00:40;;;;;;;42.17;23.15;;;4.10;73.80;;;;;;5014621;28;20036;-61
2020/12/03 09:03:11;;;;;;;44.95;22.67;;;4.10;73.70;;;;;;5015507;28;20021;-61
2020/12/03 09:05:37;;;;;;;50.22;25.25;;;4.10;73.80;;;;;;5014081;28;20112;-61
2020/12/03 09:08:03;;;;;;;38.10;22.38;;;4.10;74.10;;;;;;5020720;28;20095;-61
2020/12/03 09:10:33;;;;;;;47.13;23.38;;;4.10;74.20;;;;;;5017558;28;21139;-61
2020/12/03 09:12:59;;;;;;;40.17;23.33;;;4.20;74.20;;;;;;5020354;28;20041;-61
2020/12/03 09:15:25;;;;;;;47.13;28.90;;;4.30;74.30;;;;;;5019004;28;20034;-61
2020/12/03 09:17:57;;;;;;;46.53;24.52;;;4.30;73.40;;;;;;5017079;28;20103;-61
2020/12/03 09:20:22;;;;;;;41.25;22.48;;;4.20;72.90;;;;;;5013647;28;20430;-61
2020/12/03 09:22:48;;;;;;;41.30;20.23;;;4.10;73.20;;;;;;5019185;28;20112;-61
2020/12/03 09:25:14;;;;;;;33.97;18.23;;;4.10;73.80;;;;;;5020953;28;20025;-61
2020/12/03 09:27:46;;;;;;;38.20;16.75;;;4.20;73.90;;;;;;5012481;28;20049;-62
2020/12/03 09:30:18;;;;;;;37.05;18.95;;;4.30;73.90;;;;;;5016231;28;20033;-61
2020/12/03 09:32:49;;;;;;;31.27;18.70;;;4.30;73.70;;;;;;5012128;28;20161;-61
2020/12/03 09:35:15;;;;;;;43.47;23.95;;;4.30;73.30;;;;;;5014083;28;20049;-61
2020/12/03 09:37:41;;;;;;;36.28;18.00;;;4.30;73.10;;;;;;5014155;28;20062;-61
2020/12/03 09:40:08;;;;;;;31.45;18.02;;;4.30;73.20;;;;;;5018057;28;20147;-60
2020/12/03 09:42:43;;;;;;;33.03;18.70;;;4.40;73.60;;;;;;5008309;28;20805;-60
2020/12/03 09:45:23;;;;;;;36.88;19.50;;;4.40;73.40;;;;;;5009961;28;20113;-60
2020/12/03 09:47:50;;;;;;;43.88;24.88;;;4.50;73.00;;;;;;5012867;28;20034;-61
2020/12/03 09:50:16;;;;;;;36.47;20.02;;;4.50;72.70;;;;;;5014649;28;20040;-61
2020/12/03 09:52:43;;;;;;;46.38;23.67;;;4.40;72.40;;;;;;5011176;28;21324;-59
2020/12/03 09:55:13;;;;;;;35.90;19.50;;;4.40;72.40;;;;;;5008666;28;20033;-61
2020/12/03 09:57:39;;;;;;;42.20;21.95;;;4.30;72.90;;;;;;5012361;28;20405;-59
2020/12/03 10:00:07;;;;;;;36.03;19.42;;;4.20;72.90;;;;;;5007443;28;20029;-60
2020/12/03 10:03:12;;;;;;;49.78;27.90;;;4.20;72.50;;;;;;5010195;28;20171;-60
2020/12/03 10:05:48;;;;;;;36.38;19.13;;;4.10;72.50;;;;;;4986596;28;20168;-60
2020/12/03 10:08:26;;;;;;;38.85;19.35;;;4.00;72.80;;;;;;5012355;28;20053;-59
2020/12/03 10:11:07;;;;;;;37.03;18.40;;;4.00;73.20;;;;;;5011182;28;20518;-60
2020/12/03 10:13:51;;;;;;;36.45;19.02;;;4.00;73.40;;;;;;5010472;28;20930;-60
2020/12/03 10:16:22;;;;;;;42.88;21.98;;;4.00;73.70;;;;;;5005535;28;20396;-60
2020/12/03 10:18:54;;;;;;;46.75;23.35;;;4.00;73.60;;;;;;5017637;28;20071;-62
2020/12/03 10:21:22;;;;;;;41.17;22.45;;;4.00;73.80;;;;;;5006126;28;20454;-60
2020/12/03 10:24:06;;;;;;;39.03;19.33;;;4.00;73.90;;;;;;5013258;28;20040;-60
2020/12/03 10:26:37;;;;;;;39.17;18.95;;;4.10;74.20;;;;;;5014051;28;20560;-60
2020/12/03 10:29:24;;;;;;;38.13;17.00;;;4.10;74.10;;;;;;5009628;28;20515;-60
2020/12/03 10:31:51;;;;;;;30.48;16.58;;;4.20;73.80;;;;;;5014894;28;20037;-60
2020/12/03 10:34:18;;;;;;;36.15;17.77;;;4.30;73.80;;;;;;5010578;28;20079;-59
2020/12/03 10:36:47;;;;;;;39.05;19.20;;;4.30;73.50;;;;;;5014751;28;20651;-60
2020/12/03 10:39:15;;;;;;;38.45;20.30;;;4.20;73.20;;;;;;5016181;28;20045;-61
2020/12/03 10:41:42;;;;;;;44.40;25.38;;;4.20;72.90;;;;;;5018682;28;20030;-59
2020/12/03 10:44:16;;;;;;;43.47;25.67;;;4.10;73.00;;;;;;5015916;28;20799;-60
2020/12/03 10:46:48;;;;;;;40.33;21.55;;;4.00;73.50;;;;;;5011275;28;20029;-59
2020/12/03 10:49:16;;;;;;;36.63;18.95;;;4.00;73.60;;;;;;5008247;28;21718;-60
2020/12/03 10:51:45;;;;;;;39.05;19.42;;;4.00;73.60;;;;;;5009575;28;20036;-59
2020/12/03 10:54:18;;;;;;;41.00;23.58;;;4.00;73.90;;;;;;5008332;28;20045;-60
2020/12/03 10:56:47;;;;;;;37.88;18.95;;;4.10;73.90;;;;;;5012147;28;20030;-60
2020/12/03 11:01:49;;;;;;;;;;;4.00;73.60;;;;;;5007129;28;20026;-58
2020/12/03 11:04:16;;;;;;;32.63;17.08;;;3.90;73.50;;;;;;5003034;28;19940;-60
2020/12/03 11:06:42;;;;;;;35.03;19.20;;;3.80;73.00;;;;;;5011405;28;20029;-60
2020/12/03 11:09:19;;;;;;;37.53;20.17;;;3.70;73.30;;;;;;5012877;28;20110;-59
2020/12/03 11:11:47;;;;;;;39.28;18.05;;;3.60;73.60;;;;;;5010168;28;20741;-59
2020/12/03 11:14:15;;;;;;;34.13;18.00;;;3.50;74.00;;;;;;5012712;28;20030;-59
2020/12/03 11:16:52;;;;;;;34.80;17.50;;;3.50;74.20;;;;;;5013299;28;20039;-59
2020/12/03 11:19:19;;;;;;;31.25;18.88;;;3.50;74.40;;;;;;5013033;28;20128;-61
2020/12/03 11:21:55;;;;;;;33.42;17.48;;;3.40;74.40;;;;;;5008589;28;20038;-60
2020/12/03 11:24:33;;;;;;;36.10;18.60;;;3.40;74.90;;;;;;5004521;28;20049;-60
2020/12/03 11:27:02;;;;;;;38.97;21.45;;;3.50;75.30;;;;;;5011291;28;20168;-61
2020/12/03 11:29:35;;;;;;;41.70;20.73;;;3.60;75.50;;;;;;5019694;28;20021;-61
2020/12/03 11:32:00;;;;;;;47.70;22.60;;;3.70;75.50;;;;;;5013654;28;20373;-60
2020/12/03 11:34:37;;;;;;;40.13;20.80;;;3.90;75.50;;;;;;5010719;28;20034;-62
2020/12/03 11:37:02;;;;;;;31.67;16.77;;;3.90;75.20;;;;;;5014363;28;20084;-62
2020/12/03 11:39:30;;;;;;;44.63;19.85;;;4.00;74.60;;;;;;5014509;28;20049;-61
2020/12/03 11:48:08;;;;;;;38.28;20.08;;;4.20;74.50;;;;;;4996423;28;20548;-62
2020/12/03 11:50:38;;;;;;;39.80;21.45;;;4.20;74.30;;;;;;5016110;28;20033;-59
2020/12/03 11:53:05;;;;;;;31.98;18.70;;;4.30;74.30;;;;;;5012425;28;20113;-60
2020/12/03 11:55:40;;;;;;;36.60;18.42;;;4.40;74.10;;;;;;5009464;28;20049;-61
2020/12/03 11:58:07;;;;;;;35.70;18.73;;;4.40;73.80;;;;;;5009273;28;21305;-61
2020/12/03 12:00:34;;;;;;;42.97;19.92;;;4.40;73.80;;;;;;5015913;28;20179;-61
2020/12/03 12:03:04;;;;;;;34.90;20.55;;;4.40;73.20;;;;;;5019491;28;20026;-61
2020/12/03 12:10:48;;;;;;;43.60;22.35;;;4.50;73.00;;;;;;5010852;28;20029;-62
2020/12/03 12:13:14;;;;;;;34.33;20.02;;;4.50;72.90;;;;;;5013761;28;20031;-61
2020/12/03 12:15:40;;;;;;;46.63;23.88;;;4.50;73.00;;;;;;5007821;28;20048;-61
2020/12/03 12:18:06;;;;;;;38.92;19.90;;;4.40;72.90;;;;;;5013272;28;20033;-61
2020/12/03 12:20:32;;;;;;;35.83;19.83;;;4.40;72.80;;;;;;5008489;28;20083;-61
2020/12/03 12:22:58;;;;;;;44.83;20.90;;;4.40;72.60;;;;;;5014819;28;20107;-60
2020/12/03 12:25:24;;;;;;;40.28;18.88;;;4.40;72.90;;;;;;5007760;28;20029;-60
2020/12/03 12:27:49;;;;;;;40.70;19.23;;;4.40;72.90;;;;;;5003166;28;20497;-61
2020/12/03 12:30:15;;;;;;;28.67;17.42;;;4.40;72.80;;;;;;5013517;28;20030;-60
2020/12/03 12:32:42;;;;;;;31.85;17.85;;;4.40;73.00;;;;;;5014833;28;20088;-60
2020/12/03 12:35:07;;;;;;;33.38;18.42;;;4.30;72.50;;;;;;5014721;28;20029;-60
2020/12/03 12:37:33;;;;;;;34.65;20.50;;;4.30;72.60;;;;;;5010649;28;20601;-60
2020/12/03 12:39:59;;;;;;;39.15;20.30;;;4.30;72.60;;;;;;5010248;28;20034;-60
2020/12/03 12:42:26;;;;;;;33.00;19.05;;;4.20;72.50;;;;;;5014336;28;20828;-60
2020/12/03 12:44:53;;;;;;;30.70;16.98;;;4.00;72.60;;;;;;5012685;28;20025;-59
2020/12/03 12:47:19;;;;;;;34.78;19.23;;;4.00;73.00;;;;;;5018308;28;20033;-59
2020/12/03 12:49:44;;;;;;;39.90;19.92;;;4.00;73.10;;;;;;5008336;28;20656;-59
2020/12/03 12:52:10;;;;;;;31.67;18.10;;;3.90;73.20;;;;;;5013704;28;20033;-60
2020/12/03 12:54:36;;;;;;;34.20;18.67;;;3.90;73.60;;;;;;5016726;28;20053;-59
2020/12/03 12:57:02;;;;;;;35.25;18.30;;;3.90;73.60;;;;;;5012838;28;22138;-60
2020/12/03 12:59:28;;;;;;;37.35;19.52;;;3.90;73.60;;;;;;5015376;28;20037;-61
2020/12/03 13:01:54;;;;;;;36.25;19.75;;;3.90;73.60;;;;;;5008569;28;20049;-59
2020/12/03 13:04:21;;;;;;;42.00;20.67;;;3.80;73.60;;;;;;5007524;28;20454;-61
2020/12/03 13:06:54;;;;;;;45.55;25.02;;;3.80;73.70;;;;;;5014418;28;20120;-61
2020/12/03 13:09:21;;;;;;;38.97;21.17;;;3.70;73.90;;;;;;5015280;28;20022;-61
2020/12/03 13:11:47;;;;;;;40.00;19.83;;;3.70;74.80;;;;;;5013705;28;20037;-61
2020/12/03 13:14:14;;;;;;;36.72;19.23;;;3.60;74.30;;;;;;5011402;28;20369;-60
2020/12/03 13:16:40;;;;;;;35.72;19.05;;;3.60;74.50;;;;;;5009516;28;21243;-61
2020/12/03 13:19:07;;;;;;;38.08;19.05;;;3.60;74.90;;;;;;5007683;28;20041;-60